Time;durP1;ratioP1;P1;durP2;ratioP2;P2;SDS_P1;SDS_P2;PMS_P1;PMS_P2;Temp;Humidity;BMP_temperature;BMP_pressure;BME280_temperature;BME280_humidity;BME280_pressure;Samples;Min_cycle;Max_cycle;Signal;HPM_P1;HPM_P2
2021/05/19 00:01:27;;;;;;;6.63;4.70;;;11.90;98.70;;;;;;5049707;28;20044;-85
2021/05/19 00:03:53;;;;;;;8.55;5.28;;;11.80;98.80;;;;;;5049907;28;20100;-83
2021/05/19 00:06:18;;;;;;;5.05;3.30;;;11.80;99.10;;;;;;5050086;28;20025;-85
2021/05/19 00:08:44;;;;;;;6.00;3.75;;;11.70;98.90;;;;;;5052431;28;20451;-84
2021/05/19 00:11:11;;;;;;;4.05;3.58;;;11.70;98.90;;;;;;5032090;28;20462;-85
2021/05/19 00:13:37;;;;;;;4.90;3.85;;;11.70;98.90;;;;;;5049759;28;20124;-84
2021/05/19 00:16:07;;;;;;;5.55;3.63;;;11.70;99.10;;;;;;5050118;28;20496;-85
2021/05/19 00:18:37;;;;;;;6.57;3.53;;;11.60;99.00;;;;;;5049037;28;20098;-85
2021/05/19 00:21:04;;;;;;;4.78;3.15;;;11.60;99.10;;;;;;5052452;28;20029;-85
2021/05/19 00:23:29;;;;;;;6.78;3.13;;;11.60;99.30;;;;;;5051489;28;20013;-85
2021/05/19 00:25:55;;;;;;;7.90;3.30;;;11.60;99.20;;;;;;5030382;28;20410;-86
2021/05/19 00:28:22;;;;;;;5.65;3.00;;;11.60;99.20;;;;;;5049673;28;20041;-86
2021/05/19 00:30:49;;;;;;;3.83;3.00;;;11.60;99.30;;;;;;5034178;28;20028;-84
2021/05/19 00:33:15;;;;;;;12.13;3.83;;;11.60;99.20;;;;;;5046146;28;20401;-85
2021/05/19 00:35:41;;;;;;;6.90;3.40;;;11.60;99.20;;;;;;5052630;28;20051;-85
2021/05/19 00:38:06;;;;;;;7.32;3.22;;;11.60;99.20;;;;;;5048387;28;20124;-85
2021/05/19 00:40:32;;;;;;;5.95;3.92;;;11.60;99.30;;;;;;5047060;28;20032;-84
2021/05/19 00:42:58;;;;;;;4.28;2.78;;;11.60;99.20;;;;;;5047187;28;20135;-85
2021/05/19 00:45:24;;;;;;;5.72;3.00;;;11.50;99.20;;;;;;5047825;28;20045;-85
2021/05/19 00:47:51;;;;;;;6.63;3.22;;;11.50;99.30;;;;;;5049434;28;20044;-84
2021/05/19 00:50:22;;;;;;;5.30;3.75;;;11.50;99.40;;;;;;5049724;28;20031;-85
2021/05/19 00:52:50;;;;;;;8.70;4.00;;;11.40;99.40;;;;;;5048613;28;20091;-84
2021/05/19 00:55:16;;;;;;;6.43;4.35;;;11.40;99.40;;;;;;5031371;28;20432;-85
2021/05/19 00:57:43;;;;;;;7.28;3.75;;;11.40;99.60;;;;;;5049528;28;20058;-86
2021/05/19 01:00:12;;;;;;;5.20;3.60;;;11.40;99.30;;;;;;5049251;28;20016;-86
2021/05/19 01:02:38;;;;;;;3.83;3.13;;;11.40;99.50;;;;;;5050875;28;20085;-86
2021/05/19 01:05:08;;;;;;;7.20;3.42;;;11.40;99.50;;;;;;5049639;28;20052;-86
2021/05/19 01:07:35;;;;;;;9.00;3.60;;;11.30;99.70;;;;;;5048980;28;20614;-86
2021/05/19 01:10:01;;;;;;;3.40;2.90;;;11.30;99.70;;;;;;5047039;28;20547;-86
2021/05/19 01:12:27;;;;;;;4.88;3.85;;;11.30;99.60;;;;;;5048440;28;20029;-86
2021/05/19 01:14:53;;;;;;;5.53;3.40;;;11.40;99.70;;;;;;5032359;28;20033;-87
2021/05/19 01:17:20;;;;;;;5.45;3.60;;;11.30;99.80;;;;;;5051510;28;20037;-87
2021/05/19 01:19:50;;;;;;;5.35;3.17;;;11.40;99.80;;;;;;5050601;28;20063;-86
2021/05/19 01:22:25;;;;;;;4.60;3.15;;;11.30;99.60;;;;;;5048215;28;20117;-85
2021/05/19 01:24:52;;;;;;;4.93;3.20;;;11.30;99.80;;;;;;5044295;28;20018;-87
2021/05/19 01:27:19;;;;;;;4.20;3.05;;;11.30;99.80;;;;;;5028861;28;20146;-86
2021/05/19 01:29:52;;;;;;;3.08;2.65;;;11.30;99.90;;;;;;5048445;28;20024;-87
2021/05/19 01:32:18;;;;;;;4.40;2.83;;;11.30;99.80;;;;;;5049238;28;20524;-86
2021/05/19 01:34:44;;;;;;;3.97;2.90;;;11.30;99.70;;;;;;5048243;28;20506;-86
2021/05/19 01:37:14;;;;;;;5.05;3.30;;;11.30;99.80;;;;;;5047635;28;20029;-86
2021/05/19 01:39:41;;;;;;;4.38;2.70;;;11.30;99.90;;;;;;5041724;28;20025;-86
2021/05/19 01:42:08;;;;;;;3.00;2.65;;;11.30;99.90;;;;;;5042673;28;20013;-87
2021/05/19 01:44:34;;;;;;;3.83;3.03;;;11.30;99.90;;;;;;5048661;28;20028;-87
2021/05/19 01:47:02;;;;;;;5.00;3.15;;;11.30;99.90;;;;;;5046227;28;20024;-86
2021/05/19 01:49:32;;;;;;;5.72;2.90;;;11.30;99.90;;;;;;5044052;28;20387;-86
2021/05/19 01:52:01;;;;;;;3.58;3.08;;;11.30;99.90;;;;;;5021867;28;20072;-86
2021/05/19 01:54:28;;;;;;;4.95;3.67;;;11.30;99.90;;;;;;5046564;28;20055;-88
2021/05/19 01:56:54;;;;;;;5.85;3.95;;;11.30;99.90;;;;;;5047687;28;20065;-85
2021/05/19 01:59:21;;;;;;;6.00;4.20;;;11.30;99.90;;;;;;5047195;28;20485;-87
2021/05/19 02:01:46;;;;;;;7.55;4.68;;;11.30;99.90;;;;;;5048090;28;20032;-86
2021/05/19 02:04:14;;;;;;;7.60;5.78;;;11.30;99.90;;;;;;5047331;28;20021;-88
2021/05/19 02:06:50;;;;;;;7.20;5.07;;;11.20;99.90;;;;;;5047942;28;20147;-85
2021/05/19 02:09:18;;;;;;;6.70;5.68;;;11.30;99.90;;;;;;5045166;28;20025;-85
2021/05/19 02:11:45;;;;;;;6.50;5.60;;;11.30;99.90;;;;;;5049494;28;20024;-86
2021/05/19 02:14:11;;;;;;;7.93;5.60;;;11.20;99.90;;;;;;5047268;28;20476;-87
2021/05/19 02:16:38;;;;;;;6.43;5.63;;;11.20;99.90;;;;;;5046530;28;20025;-87
2021/05/19 02:19:04;;;;;;;5.35;4.80;;;11.10;99.90;;;;;;5047919;28;20435;-87
2021/05/19 02:21:30;;;;;;;6.38;4.63;;;11.20;99.90;;;;;;5045541;28;20026;-86
2021/05/19 02:23:58;;;;;;;5.13;4.40;;;11.20;99.90;;;;;;5029670;28;20029;-86
2021/05/19 02:26:24;;;;;;;4.85;3.78;;;11.10;99.90;;;;;;5048129;28;20060;-85
2021/05/19 02:28:50;;;;;;;5.45;3.80;;;11.10;99.90;;;;;;5047109;28;20045;-87
2021/05/19 02:31:15;;;;;;;5.82;3.67;;;11.10;99.90;;;;;;5045684;28;20083;-86
2021/05/19 02:33:41;;;;;;;4.00;2.85;;;11.10;99.90;;;;;;5048160;28;20483;-87
2021/05/19 02:36:07;;;;;;;4.65;2.47;;;11.10;99.90;;;;;;5047287;28;20050;-86
2021/05/19 02:38:34;;;;;;;3.30;2.70;;;11.10;99.90;;;;;;5031741;28;20389;-87
2021/05/19 02:41:01;;;;;;;3.40;2.30;;;11.10;99.90;;;;;;5047811;28;20035;-86
2021/05/19 02:43:27;;;;;;;3.63;2.47;;;11.10;99.90;;;;;;5048586;28;20025;-87
2021/05/19 02:45:53;;;;;;;4.78;2.10;;;11.00;99.90;;;;;;5049207;28;20051;-86
2021/05/19 02:48:19;;;;;;;3.40;2.30;;;11.00;99.90;;;;;;5047250;28;20034;-86
2021/05/19 02:50:44;;;;;;;5.40;2.22;;;11.00;99.90;;;;;;5031819;28;20056;-86
2021/05/19 02:53:10;;;;;;;2.95;2.28;;;11.00;99.90;;;;;;5048353;28;20127;-83
2021/05/19 02:55:36;;;;;;;2.58;2.13;;;11.00;99.90;;;;;;5045792;28;20017;-88
2021/05/19 02:58:02;;;;;;;2.00;1.80;;;10.90;99.90;;;;;;5046805;28;20497;-86
2021/05/19 03:00:27;;;;;;;4.50;2.13;;;10.90;99.90;;;;;;5028498;28;20033;-86
2021/05/19 03:02:53;;;;;;;3.45;2.30;;;10.90;99.90;;;;;;5048953;28;20033;-86
2021/05/19 03:05:19;;;;;;;2.63;2.17;;;10.90;99.90;;;;;;5048224;28;20499;-85
2021/05/19 03:07:45;;;;;;;3.88;2.45;;;11.00;99.90;;;;;;5049530;28;20025;-86
2021/05/19 03:10:12;;;;;;;4.28;1.98;;;10.90;99.90;;;;;;5046664;28;20013;-85
2021/05/19 03:12:38;;;;;;;4.72;2.53;;;10.90;99.90;;;;;;5044881;28;20202;-86
2021/05/19 03:15:06;;;;;;;3.95;2.58;;;10.90;99.90;;;;;;5032592;28;20024;-86
2021/05/19 03:17:32;;;;;;;6.00;2.75;;;10.80;99.90;;;;;;5052491;28;20033;-85
2021/05/19 03:19:57;;;;;;;5.25;2.28;;;10.90;99.90;;;;;;5045480;28;20090;-84
2021/05/19 03:22:24;;;;;;;3.72;2.30;;;10.80;99.90;;;;;;5044138;28;20040;-87
2021/05/19 03:24:49;;;;;;;4.03;2.47;;;10.80;99.90;;;;;;5050116;28;20021;-85
2021/05/19 03:27:15;;;;;;;2.80;2.00;;;10.80;99.90;;;;;;5051276;28;20025;-86
2021/05/19 03:29:41;;;;;;;4.22;2.28;;;10.90;99.90;;;;;;5033538;28;20021;-86
2021/05/19 03:32:06;;;;;;;5.30;2.78;;;10.90;99.90;;;;;;5049202;28;20029;-85
2021/05/19 03:34:32;;;;;;;5.78;2.45;;;10.90;99.90;;;;;;5049386;28;20561;-86
2021/05/19 03:36:58;;;;;;;5.72;2.63;;;10.80;99.90;;;;;;5046233;28;20488;-86
2021/05/19 03:39:25;;;;;;;5.38;2.60;;;10.90;99.90;;;;;;5031057;28;20072;-86
2021/05/19 03:41:51;;;;;;;4.38;2.45;;;10.90;99.90;;;;;;5033171;28;20485;-85
2021/05/19 03:44:16;;;;;;;4.55;2.70;;;10.90;99.90;;;;;;5049524;28;20040;-86
2021/05/19 03:46:42;;;;;;;3.97;2.40;;;10.90;99.90;;;;;;5048545;28;20328;-84
2021/05/19 03:49:08;;;;;;;4.45;2.50;;;10.90;99.90;;;;;;5050376;28;20075;-85
2021/05/19 03:51:34;;;;;;;6.18;2.50;;;10.90;99.90;;;;;;5047048;28;20029;-85
2021/05/19 03:54:01;;;;;;;4.00;2.13;;;10.90;99.90;;;;;;5049742;28;20041;-86
2021/05/19 03:56:26;;;;;;;5.97;2.88;;;10.90;99.90;;;;;;5052225;28;20021;-85
2021/05/19 03:58:52;;;;;;;6.85;2.75;;;10.90;99.90;;;;;;5048865;28;20024;-85
2021/05/19 04:01:18;;;;;;;6.68;2.40;;;10.80;99.90;;;;;;5048637;28;20554;-86
2021/05/19 04:03:44;;;;;;;3.88;2.58;;;10.90;99.90;;;;;;5049723;28;20035;-85
2021/05/19 04:06:10;;;;;;;5.00;2.53;;;10.90;99.90;;;;;;5048028;28;20025;-85
2021/05/19 04:08:41;;;;;;;3.63;2.60;;;10.90;99.90;;;;;;5053820;28;20025;-84
2021/05/19 04:11:08;;;;;;;4.35;2.80;;;10.80;99.90;;;;;;5051795;28;20071;-85
2021/05/19 04:13:34;;;;;;;5.82;2.95;;;10.80;99.90;;;;;;5049344;28;20036;-85
2021/05/19 04:16:00;;;;;;;6.60;3.08;;;10.80;99.90;;;;;;5049925;28;20051;-85
2021/05/19 04:18:25;;;;;;;12.68;3.45;;;10.80;99.90;;;;;;5052182;28;20029;-84
2021/05/19 04:20:52;;;;;;;4.63;3.03;;;10.80;99.90;;;;;;5039775;28;20108;-86
2021/05/19 04:23:18;;;;;;;7.72;3.42;;;10.80;99.90;;;;;;5048750;28;20031;-85
2021/05/19 04:25:44;;;;;;;5.07;3.05;;;10.80;99.90;;;;;;5047413;28;20024;-86
2021/05/19 04:28:10;;;;;;;6.60;3.75;;;10.80;99.90;;;;;;5032408;28;20607;-85
2021/05/19 04:30:36;;;;;;;6.63;3.47;;;10.80;99.90;;;;;;5048813;28;20437;-85
2021/05/19 04:33:03;;;;;;;6.22;3.78;;;10.70;99.90;;;;;;5049483;28;22893;-85
2021/05/19 04:35:29;;;;;;;6.07;4.07;;;10.70;99.90;;;;;;5033517;28;20049;-85
2021/05/19 04:37:55;;;;;;;9.50;4.30;;;10.70;99.90;;;;;;5048538;28;20017;-85
2021/05/19 04:40:21;;;;;;;6.05;3.88;;;10.70;99.90;;;;;;5049341;28;20439;-84
2021/05/19 04:42:48;;;;;;;4.93;3.90;;;10.70;99.90;;;;;;5048861;28;20063;-85
2021/05/19 04:45:14;;;;;;;5.60;3.83;;;10.70;99.90;;;;;;5050228;28;20036;-84
2021/05/19 04:47:41;;;;;;;7.70;4.68;;;10.70;99.90;;;;;;5051819;28;20039;-84
2021/05/19 04:50:08;;;;;;;6.07;3.40;;;10.80;99.90;;;;;;5039804;28;20029;-84
2021/05/19 04:52:34;;;;;;;6.88;3.80;;;10.70;99.90;;;;;;5031664;28;20036;-85
2021/05/19 04:55:01;;;;;;;7.50;4.07;;;10.80;99.90;;;;;;5047051;28;20461;-85
2021/05/19 04:57:27;;;;;;;6.80;4.25;;;10.80;99.90;;;;;;5047424;28;20034;-84
2021/05/19 04:59:53;;;;;;;7.00;4.03;;;10.70;99.90;;;;;;5049384;28;20028;-83
2021/05/19 05:02:18;;;;;;;8.55;4.53;;;10.70;99.90;;;;;;5050304;28;20181;-84
2021/05/19 05:04:44;;;;;;;7.18;4.60;;;10.70;99.90;;;;;;5047940;28;20028;-84
2021/05/19 05:07:10;;;;;;;8.10;4.57;;;10.70;99.90;;;;;;5049120;28;20052;-84
2021/05/19 05:09:35;;;;;;;5.78;4.53;;;10.70;99.90;;;;;;5048445;28;20032;-84
2021/05/19 05:12:01;;;;;;;5.75;4.18;;;10.70;99.90;;;;;;5049312;28;20021;-84
2021/05/19 05:14:27;;;;;;;5.97;4.30;;;10.70;99.90;;;;;;5051126;28;20029;-84
2021/05/19 05:16:54;;;;;;;10.63;4.65;;;10.70;99.90;;;;;;5048736;28;20032;-84
2021/05/19 05:19:19;;;;;;;10.35;4.38;;;10.70;99.90;;;;;;5048547;28;20024;-85
2021/05/19 05:21:45;;;;;;;6.05;4.07;;;10.80;99.90;;;;;;5046129;28;20027;-84
2021/05/19 05:24:10;;;;;;;4.65;3.55;;;10.80;99.90;;;;;;5048312;28;20028;-86
2021/05/19 05:26:37;;;;;;;5.25;4.35;;;10.80;99.90;;;;;;5052069;28;20032;-85
2021/05/19 05:29:03;;;;;;;6.55;4.13;;;10.80;99.90;;;;;;5021813;28;20362;-84
2021/05/19 05:31:28;;;;;;;7.55;4.30;;;10.80;99.90;;;;;;5028423;28;20800;-84
2021/05/19 05:33:54;;;;;;;6.95;4.53;;;10.80;99.90;;;;;;5048042;28;20411;-84
2021/05/19 05:36:19;;;;;;;8.13;4.00;;;10.80;99.90;;;;;;5046972;28;20124;-84
2021/05/19 05:38:45;;;;;;;9.43;5.47;;;10.80;99.90;;;;;;5048004;28;20082;-84
2021/05/19 05:41:11;;;;;;;8.68;4.63;;;10.80;99.90;;;;;;5046681;28;20021;-84
2021/05/19 05:43:37;;;;;;;5.82;4.47;;;10.80;99.90;;;;;;5030701;28;20121;-84
2021/05/19 05:46:03;;;;;;;6.82;4.15;;;10.80;99.90;;;;;;5047262;28;20063;-83
2021/05/19 05:48:29;;;;;;;6.10;4.13;;;10.80;99.90;;;;;;5047481;28;20075;-84
2021/05/19 05:50:55;;;;;;;7.88;4.60;;;10.90;99.90;;;;;;5048171;28;20022;-84
2021/05/19 05:53:20;;;;;;;11.20;4.30;;;10.90;99.90;;;;;;5047550;28;20041;-85
2021/05/19 05:55:46;;;;;;;6.28;4.30;;;10.90;99.90;;;;;;5041531;28;20436;-85
2021/05/19 05:58:13;;;;;;;7.93;4.85;;;10.90;99.90;;;;;;5039856;28;20100;-85
2021/05/19 06:00:38;;;;;;;7.32;5.05;;;10.90;99.90;;;;;;5048374;28;20017;-84
2021/05/19 06:03:06;;;;;;;6.07;4.65;;;10.90;99.90;;;;;;5042552;28;20080;-84
2021/05/19 06:05:32;;;;;;;5.93;4.60;;;11.00;99.90;;;;;;5048499;28;20025;-85
2021/05/19 06:08:01;;;;;;;6.18;4.47;;;10.90;99.90;;;;;;5048262;28;20087;-84
2021/05/19 06:10:26;;;;;;;5.20;4.15;;;10.90;99.90;;;;;;5044807;28;20022;-85
2021/05/19 06:12:52;;;;;;;11.77;4.68;;;10.90;99.90;;;;;;5037885;28;20033;-85
2021/05/19 06:15:18;;;;;;;10.10;5.00;;;10.90;99.90;;;;;;5044568;28;20071;-84
2021/05/19 06:17:43;;;;;;;9.93;5.10;;;10.90;99.90;;;;;;5038252;28;20033;-85
2021/05/19 06:20:10;;;;;;;7.55;5.55;;;10.90;99.90;;;;;;5048692;28;20024;-85
2021/05/19 06:22:36;;;;;;;11.52;6.75;;;10.90;99.90;;;;;;5040093;28;20045;-86
2021/05/19 06:25:01;;;;;;;9.05;6.00;;;10.90;99.90;;;;;;5032665;28;20075;-85
2021/05/19 06:27:27;;;;;;;9.75;6.35;;;10.90;99.90;;;;;;5030237;28;20171;-84
2021/05/19 06:29:53;;;;;;;9.98;7.38;;;11.00;99.90;;;;;;5022496;28;20041;-84
2021/05/19 06:32:18;;;;;;;11.95;7.10;;;11.00;99.90;;;;;;5031183;28;20081;-84
2021/05/19 06:34:44;;;;;;;9.73;6.68;;;11.00;99.90;;;;;;5030505;28;20056;-85
2021/05/19 06:37:10;;;;;;;11.25;6.75;;;11.10;99.90;;;;;;5025285;28;20044;-85
2021/05/19 06:39:35;;;;;;;9.52;7.63;;;11.10;99.90;;;;;;5047500;28;20028;-85
2021/05/19 06:42:01;;;;;;;10.48;7.10;;;11.10;99.90;;;;;;5049168;28;20132;-84
2021/05/19 06:44:27;;;;;;;8.40;7.03;;;11.20;99.90;;;;;;5032035;28;20519;-85
2021/05/19 06:46:53;;;;;;;11.25;7.63;;;11.20;99.90;;;;;;5048310;28;20029;-83
2021/05/19 06:49:19;;;;;;;12.20;8.30;;;11.20;99.90;;;;;;5033965;28;20024;-86
2021/05/19 06:51:46;;;;;;;12.82;8.10;;;11.30;99.90;;;;;;5040814;28;20040;-85
2021/05/19 06:54:12;;;;;;;9.48;7.43;;;11.30;99.90;;;;;;5051585;28;20037;-84
2021/05/19 06:56:43;;;;;;;14.23;8.18;;;11.40;99.90;;;;;;5049801;28;20370;-84
2021/05/19 06:59:10;;;;;;;16.45;7.80;;;11.40;99.90;;;;;;5052349;28;20087;-84
2021/05/19 07:01:36;;;;;;;13.77;7.97;;;11.50;99.90;;;;;;5030522;28;20013;-85
2021/05/19 07:04:02;;;;;;;11.52;8.07;;;11.50;99.90;;;;;;5054291;28;20052;-85
2021/05/19 07:06:28;;;;;;;12.57;8.10;;;11.50;99.90;;;;;;5051775;28;20484;-84
2021/05/19 07:08:53;;;;;;;11.52;8.52;;;11.50;99.90;;;;;;5038561;28;20033;-85
2021/05/19 07:11:19;;;;;;;14.50;8.80;;;11.50;99.90;;;;;;5054719;28;20067;-84
2021/05/19 07:13:45;;;;;;;16.38;10.07;;;11.50;99.90;;;;;;5051353;28;20043;-85
2021/05/19 07:16:12;;;;;;;16.38;10.32;;;11.50;99.90;;;;;;5051071;28;20103;-85
2021/05/19 07:18:37;;;;;;;13.18;10.32;;;11.60;99.90;;;;;;5049719;28;20029;-84
2021/05/19 07:21:03;;;;;;;15.93;10.50;;;11.60;99.90;;;;;;5050870;28;20036;-84
2021/05/19 07:23:29;;;;;;;13.98;10.77;;;11.70;99.90;;;;;;5047763;28;20108;-84
2021/05/19 07:25:54;;;;;;;19.13;11.98;;;11.70;99.90;;;;;;5039577;28;20033;-85
2021/05/19 07:28:20;;;;;;;16.90;10.50;;;11.80;99.90;;;;;;5032493;28;20041;-84
2021/05/19 07:30:48;;;;;;;16.73;10.88;;;11.80;99.90;;;;;;5042307;28;20366;-84
2021/05/19 07:33:14;;;;;;;16.27;11.00;;;11.90;99.90;;;;;;5044971;28;20496;-84
2021/05/19 07:35:41;;;;;;;15.73;11.98;;;11.90;99.90;;;;;;5040259;28;20037;-83
2021/05/19 07:38:10;;;;;;;14.35;11.20;;;12.00;99.90;;;;;;5042529;28;20071;-85
2021/05/19 07:40:38;;;;;;;16.65;11.48;;;12.00;99.90;;;;;;5038845;28;20071;-85
2021/05/19 07:43:03;;;;;;;13.35;11.10;;;12.10;99.90;;;;;;5037295;28;20459;-83
2021/05/19 07:45:29;;;;;;;14.43;12.15;;;12.10;99.90;;;;;;5037804;28;20052;-84
2021/05/19 07:47:55;;;;;;;15.20;11.27;;;12.20;99.90;;;;;;5041184;28;20035;-85
2021/05/19 07:50:21;;;;;;;16.15;12.25;;;12.30;99.90;;;;;;5042304;28;20139;-84
2021/05/19 07:52:47;;;;;;;14.18;11.60;;;12.30;99.90;;;;;;5039089;28;20492;-85
2021/05/19 07:58:12;;;;;;;13.98;12.20;;;12.40;99.90;;;;;;4982373;28;20023;-84
2021/05/19 08:03:04;;;;;;;16.05;10.52;;;12.50;99.90;;;;;;4984462;28;20034;-85
2021/05/19 08:05:29;;;;;;;16.35;11.73;;;12.60;99.60;;;;;;4983841;28;20026;-85
2021/05/19 08:07:56;;;;;;;10.60;9.50;;;12.60;99.80;;;;;;4985475;28;20089;-84
2021/05/19 08:10:22;;;;;;;13.27;10.50;;;12.60;99.30;;;;;;4981314;28;20038;-84
2021/05/19 08:12:48;;;;;;;13.00;10.45;;;12.60;99.40;;;;;;4988195;28;20038;-85
2021/05/19 08:15:14;;;;;;;12.32;11.02;;;12.70;99.10;;;;;;4983456;28;20089;-84
2021/05/19 08:17:39;;;;;;;14.23;12.18;;;12.70;99.30;;;;;;4986507;28;20035;-84
2021/05/19 08:20:06;;;;;;;14.93;12.75;;;12.70;99.40;;;;;;4980732;28;20450;-84
2021/05/19 08:22:32;;;;;;;15.07;12.18;;;12.90;99.50;;;;;;4985544;28;20146;-84
2021/05/19 08:24:58;;;;;;;13.30;10.55;;;12.90;99.30;;;;;;4982977;28;20121;-84
2021/05/19 08:27:23;;;;;;;14.77;10.93;;;12.90;98.70;;;;;;4986822;28;20584;-85
2021/05/19 08:29:51;;;;;;;12.77;10.73;;;12.90;98.60;;;;;;4981036;28;20035;-84
2021/05/19 08:32:17;;;;;;;14.25;10.43;;;13.00;98.90;;;;;;4981460;28;20213;-84
2021/05/19 08:34:43;;;;;;;13.48;11.48;;;13.00;98.50;;;;;;5010759;28;20112;-84
2021/05/19 08:37:09;;;;;;;12.27;10.25;;;13.00;98.60;;;;;;5040605;28;20029;-84
2021/05/19 08:39:36;;;;;;;15.38;11.63;;;13.10;98.10;;;;;;5028963;28;20017;-84
2021/05/19 08:42:02;;;;;;;12.23;10.75;;;13.20;98.90;;;;;;5035305;28;22925;-84
2021/05/19 08:44:27;;;;;;;12.32;10.60;;;13.20;98.10;;;;;;5035036;28;20362;-84
2021/05/19 08:46:56;;;;;;;14.13;11.05;;;13.30;98.60;;;;;;5034889;28;20025;-84
2021/05/19 08:49:23;;;;;;;11.85;9.88;;;13.40;98.60;;;;;;5040435;28;20009;-84
2021/05/19 08:51:49;;;;;;;14.57;11.20;;;13.30;98.00;;;;;;5036992;28;20040;-83
2021/05/19 08:54:17;;;;;;;16.88;11.35;;;13.40;98.20;;;;;;5043470;28;20440;-84
2021/05/19 08:56:45;;;;;;;14.18;10.77;;;13.50;98.20;;;;;;5044112;28;20123;-84
2021/05/19 08:59:11;;;;;;;10.90;9.32;;;13.60;97.60;;;;;;5042328;28;20388;-84
2021/05/19 09:01:51;;;;;;;12.90;9.73;;;13.70;97.50;;;;;;5035266;28;20136;-84
2021/05/19 09:04:23;;;;;;;14.85;10.85;;;13.80;98.30;;;;;;5036430;28;20052;-84
2021/05/19 09:06:54;;;;;;;12.43;9.35;;;13.80;97.80;;;;;;5040013;28;20025;-84
2021/05/19 09:09:22;;;;;;;12.25;10.07;;;13.80;97.40;;;;;;5037327;28;20111;-84
2021/05/19 09:11:55;;;;;;;12.00;9.18;;;14.00;97.40;;;;;;5033755;28;20032;-83
2021/05/19 09:14:20;;;;;;;12.52;10.02;;;14.10;97.10;;;;;;5045578;28;20493;-84
2021/05/19 09:16:46;;;;;;;13.18;10.45;;;14.30;97.70;;;;;;5044916;28;20027;-84
2021/05/19 09:19:12;;;;;;;13.32;9.93;;;14.40;97.50;;;;;;5028286;28;20033;-85
2021/05/19 09:21:39;;;;;;;10.27;7.57;;;14.60;96.70;;;;;;5040221;28;20388;-84
2021/05/19 09:24:11;;;;;;;10.18;7.95;;;14.60;95.40;;;;;;5041344;28;20032;-85
2021/05/19 09:26:58;;;;;;;10.50;7.40;;;14.60;96.30;;;;;;5039320;28;20083;-85
2021/05/19 09:29:27;;;;;;;11.85;7.90;;;14.60;95.60;;;;;;5035883;28;20174;-86
2021/05/19 09:31:56;;;;;;;11.17;7.53;;;14.70;95.50;;;;;;5028408;28;20119;-86
2021/05/19 09:34:30;;;;;;;9.25;7.28;;;14.80;96.10;;;;;;5041844;28;20307;-85
2021/05/19 09:37:15;;;;;;;7.63;6.50;;;14.70;95.40;;;;;;5038937;28;20124;-84
2021/05/19 09:40:00;;;;;;;8.43;6.18;;;14.70;95.10;;;;;;5037332;28;20033;-85
2021/05/19 09:42:37;;;;;;;12.60;7.00;;;14.70;95.40;;;;;;5019737;28;20372;-85
2021/05/19 09:45:22;;;;;;;7.72;6.75;;;14.70;96.10;;;;;;5032618;28;20124;-85
2021/05/19 09:47:49;;;;;;;12.60;6.60;;;14.90;95.30;;;;;;5042671;28;20022;-86
2021/05/19 09:50:18;;;;;;;7.22;5.50;;;14.90;95.30;;;;;;5021182;28;20113;-85
2021/05/19 09:53:04;;;;;;;10.05;6.00;;;14.80;94.60;;;;;;5023991;28;20025;-85
2021/05/19 09:55:30;;;;;;;6.97;5.25;;;14.70;95.40;;;;;;5037642;28;20091;-84
2021/05/19 09:57:56;;;;;;;6.90;5.65;;;14.60;94.90;;;;;;5042745;28;20032;-85
2021/05/19 10:00:26;;;;;;;10.55;6.85;;;14.50;95.60;;;;;;5034611;28;20029;-86
2021/05/19 10:02:52;;;;;;;10.17;6.67;;;14.60;96.20;;;;;;5036108;28;20021;-86
2021/05/19 10:05:26;;;;;;;10.98;7.22;;;14.70;95.60;;;;;;5035993;28;20530;-85
2021/05/19 10:07:56;;;;;;;13.27;7.22;;;14.80;95.40;;;;;;5040150;28;20044;-86
2021/05/19 10:10:26;;;;;;;8.98;6.97;;;15.00;95.10;;;;;;5037484;28;20024;-85
2021/05/19 10:12:53;;;;;;;9.38;6.47;;;15.10;94.60;;;;;;5043630;28;20075;-86
2021/05/19 10:15:28;;;;;;;10.98;7.75;;;15.20;94.90;;;;;;5034432;28;20024;-85
2021/05/19 10:18:01;;;;;;;9.45;7.05;;;15.30;94.70;;;;;;5038255;28;20039;-86
2021/05/19 10:20:32;;;;;;;11.52;7.40;;;15.30;94.30;;;;;;5039835;28;20029;-86
2021/05/19 10:22:58;;;;;;;9.90;7.13;;;15.30;94.00;;;;;;5042512;28;20444;-86
2021/05/19 10:25:42;;;;;;;8.02;6.70;;;15.30;94.40;;;;;;5039439;28;20030;-86
2021/05/19 10:28:18;;;;;;;10.85;7.28;;;15.50;94.60;;;;;;5033694;28;20396;-85
2021/05/19 10:30:51;;;;;;;11.13;6.85;;;15.60;94.40;;;;;;5042409;28;20094;-86
2021/05/19 10:33:45;;;;;;;8.50;6.85;;;15.70;94.40;;;;;;5014939;28;20172;-87
2021/05/19 10:36:30;;;;;;;9.77;6.00;;;15.90;94.30;;;;;;5031835;28;20047;-85
2021/05/19 10:39:08;;;;;;;7.97;5.38;;;16.00;92.70;;;;;;5042904;28;20058;-86
2021/05/19 10:41:45;;;;;;;14.23;6.65;;;15.90;92.20;;;;;;5044220;28;20552;-85
2021/05/19 10:44:24;;;;;;;9.93;5.85;;;16.00;91.70;;;;;;5018446;28;20033;-85
2021/05/19 10:47:07;;;;;;;8.23;5.43;;;15.90;92.20;;;;;;5034675;28;20045;-86
2021/05/19 10:50:12;;;;;;;8.38;6.47;;;16.00;92.40;;;;;;5037715;28;20034;-87
2021/05/19 10:58:54;;;;;;;7.18;5.10;;;16.30;92.30;;;;;;5043894;28;20094;-86
2021/05/19 11:01:41;;;;;;;7.25;4.28;;;16.20;91.70;;;;;;5035471;28;20048;-86
2021/05/19 11:04:21;;;;;;;5.82;4.78;;;16.10;91.60;;;;;;5032668;28;20806;-86
2021/05/19 11:06:56;;;;;;;;;;;16.00;91.20;;;;;;5035577;28;20031;-85
2021/05/19 11:09:27;;;;;;;7.45;4.55;;;16.00;91.00;;;;;;5034945;28;20280;-87
2021/05/19 11:12:21;;;;;;;6.65;4.38;;;16.00;90.30;;;;;;5040945;28;20059;-86
2021/05/19 11:15:06;;;;;;;6.70;4.55;;;16.10;91.90;;;;;;5041085;28;20505;-86
2021/05/19 11:20:08;;;;;;;8.52;3.92;;;16.20;90.50;;;;;;5042426;28;20039;-86
2021/05/19 11:22:34;;;;;;;7.38;4.10;;;16.10;90.70;;;;;;5031857;28;20036;-86
2021/05/19 11:25:02;;;;;;;6.50;3.25;;;16.30;91.10;;;;;;5030842;28;20516;-87
2021/05/19 11:27:30;;;;;;;5.93;3.55;;;16.40;91.80;;;;;;5040143;28;20025;-86
2021/05/19 11:29:57;;;;;;;4.97;3.00;;;16.40;86.40;;;;;;5038336;28;20071;-87
2021/05/19 11:32:25;;;;;;;6.70;3.60;;;16.40;88.30;;;;;;5039016;28;20021;-85
2021/05/19 11:34:53;;;;;;;6.75;3.00;;;16.30;90.10;;;;;;5023071;28;20488;-87
2021/05/19 11:37:20;;;;;;;5.20;2.63;;;16.30;88.90;;;;;;5035822;28;20079;-87
2021/05/19 11:39:50;;;;;;;3.92;2.33;;;16.40;90.50;;;;;;5022786;28;20026;-86
2021/05/19 11:42:17;;;;;;;;;;;16.40;87.00;;;;;;5037621;28;20116;-85
2021/05/19 11:44:54;;;;;;;5.80;1.92;;;16.50;84.50;;;;;;5031179;28;19917;-86
2021/05/19 11:47:36;;;;;;;5.90;2.38;;;16.50;84.90;;;;;;5039791;28;20025;-84
2021/05/19 11:50:18;;;;;;;4.35;2.50;;;16.50;85.50;;;;;;5044360;28;20104;-84
2021/05/19 11:52:58;;;;;;;5.15;2.92;;;16.60;87.40;;;;;;5037928;28;20510;-86
2021/05/19 11:55:34;;;;;;;6.28;2.47;;;16.60;85.30;;;;;;5039490;28;20024;-87
2021/05/19 11:58:06;;;;;;;4.88;2.30;;;16.60;85.10;;;;;;5044521;28;20404;-85
2021/05/19 12:00:36;;;;;;;3.53;2.40;;;16.60;83.90;;;;;;5041764;28;20017;-85
2021/05/19 12:03:03;;;;;;;6.82;2.63;;;16.70;85.10;;;;;;5043492;28;20048;-85
2021/05/19 12:05:43;;;;;;;5.43;2.28;;;16.80;83.00;;;;;;5038845;28;20059;-85
2021/05/19 12:08:08;;;;;;;3.70;2.55;;;16.80;83.00;;;;;;5037922;28;20041;-85
2021/05/19 12:10:34;;;;;;;4.07;2.50;;;16.70;83.10;;;;;;5034946;28;20053;-86
2021/05/19 12:13:03;;;;;;;4.63;2.60;;;16.80;82.30;;;;;;5020579;28;20148;-85
2021/05/19 12:15:33;;;;;;;5.40;2.58;;;16.90;82.10;;;;;;5036733;28;20025;-87
2021/05/19 12:18:00;;;;;;;5.68;2.35;;;16.90;82.70;;;;;;5041856;28;20552;-88
2021/05/19 12:20:27;;;;;;;5.85;2.75;;;16.90;81.00;;;;;;5044092;28;20020;-86
2021/05/19 12:22:59;;;;;;;7.32;2.40;;;16.90;81.20;;;;;;5027105;28;20025;-88
2021/05/19 12:25:26;;;;;;;6.38;2.45;;;16.90;82.00;;;;;;5042815;28;20192;-86
2021/05/19 12:27:56;;;;;;;3.95;1.80;;;17.00;79.20;;;;;;5020143;28;20027;-87
2021/05/19 12:30:22;;;;;;;4.35;2.20;;;17.20;80.40;;;;;;5041180;28;20048;-87
2021/05/19 12:33:07;;;;;;;4.93;3.15;;;17.20;79.70;;;;;;5037489;28;20435;-86
2021/05/19 12:35:33;;;;;;;7.72;2.30;;;17.00;78.80;;;;;;5038673;28;20057;-85
2021/05/19 12:38:07;;;;;;;3.20;2.05;;;17.00;76.20;;;;;;5045536;28;20115;-86
2021/05/19 12:40:35;;;;;;;3.67;2.10;;;17.10;79.70;;;;;;5036504;28;20466;-86
2021/05/19 12:43:06;;;;;;;5.55;1.90;;;17.10;76.30;;;;;;5037352;28;20029;-85
2021/05/19 12:45:44;;;;;;;8.55;2.10;;;17.10;76.40;;;;;;5025348;28;20022;-86
2021/05/19 12:48:11;;;;;;;4.65;2.70;;;17.20;75.70;;;;;;5036413;28;20146;-86
2021/05/19 12:50:48;;;;;;;3.03;1.92;;;17.10;74.90;;;;;;5039530;28;20017;-87
2021/05/19 12:53:39;;;;;;;3.35;2.08;;;17.40;79.20;;;;;;5043749;28;20461;-86
2021/05/19 12:56:25;;;;;;;4.07;2.10;;;17.50;75.70;;;;;;5018559;28;20021;-85
2021/05/19 12:59:00;;;;;;;4.28;2.15;;;17.60;76.70;;;;;;5041766;28;20104;-87
2021/05/19 13:01:28;;;;;;;3.25;2.13;;;17.70;74.60;;;;;;5041127;28;20501;-86
2021/05/19 13:03:54;;;;;;;2.80;2.05;;;17.90;75.60;;;;;;5038298;28;20054;-87